sensor_id;sensor_type;location;lat;lon;timestamp;P1;durP1;ratioP1;P2;durP2;ratioP2
52564;SDS011;38460;53.106;7.004;2023-08-31T00:02:14;3.97;;;2.08;;
52564;SDS011;38460;53.106;7.004;2023-08-31T00:04:40;3.88;;;2.20;;
52564;SDS011;38460;53.106;7.004;2023-08-31T00:07:06;5.78;;;1.98;;
52564;SDS011;38460;53.106;7.004;2023-08-31T00:09:32;3.40;;;2.10;;
52564;SDS011;38460;53.106;7.004;2023-08-31T00:11:58;5.50;;;2.40;;
52564;SDS011;38460;53.106;7.004;2023-08-31T00:14:26;3.80;;;2.10;;
52564;SDS011;38460;53.106;7.004;2023-08-31T00:16:52;3.40;;;2.00;;
52564;SDS011;38460;53.106;7.004;2023-08-31T00:19:18;5.28;;;2.30;;
52564;SDS011;38460;53.106;7.004;2023-08-31T00:21:44;3.58;;;2.00;;
52564;SDS011;38460;53.106;7.004;2023-08-31T00:24:10;3.85;;;2.08;;
52564;SDS011;38460;53.106;7.004;2023-08-31T00:26:36;3.35;;;2.42;;
52564;SDS011;38460;53.106;7.004;2023-08-31T00:29:09;6.40;;;2.22;;
52564;SDS011;38460;53.106;7.004;2023-08-31T00:31:36;7.05;;;2.28;;
52564;SDS011;38460;53.106;7.004;2023-08-31T00:34:02;7.25;;;2.40;;
52564;SDS011;38460;53.106;7.004;2023-08-31T00:36:32;5.80;;;2.53;;
52564;SDS011;38460;53.106;7.004;2023-08-31T00:38:58;4.72;;;2.15;;
52564;SDS011;38460;53.106;7.004;2023-08-31T00:41:30;5.88;;;2.10;;
52564;SDS011;38460;53.106;7.004;2023-08-31T00:43:56;4.50;;;2.40;;
52564;SDS011;38460;53.106;7.004;2023-08-31T00:46:22;4.65;;;2.22;;
52564;SDS011;38460;53.106;7.004;2023-08-31T00:48:48;5.10;;;2.17;;
52564;SDS011;38460;53.106;7.004;2023-08-31T00:51:13;4.95;;;2.72;;
52564;SDS011;38460;53.106;7.004;2023-08-31T00:53:39;4.97;;;1.92;;
52564;SDS011;38460;53.106;7.004;2023-08-31T00:56:06;3.85;;;2.58;;
52564;SDS011;38460;53.106;7.004;2023-08-31T00:58:33;3.45;;;1.60;;
52564;SDS011;38460;53.106;7.004;2023-08-31T01:12:11;4.70;;;2.00;;
52564;SDS011;38460;53.106;7.004;2023-08-31T01:15:05;5.82;;;2.00;;
52564;SDS011;38460;53.106;7.004;2023-08-31T01:17:46;2.80;;;1.70;;
52564;SDS011;38460;53.106;7.004;2023-08-31T01:20:16;3.78;;;1.95;;
52564;SDS011;38460;53.106;7.004;2023-08-31T01:22:55;6.03;;;2.13;;
52564;SDS011;38460;53.106;7.004;2023-08-31T01:25:28;5.78;;;2.35;;
52564;SDS011;38460;53.106;7.004;2023-08-31T01:27:56;3.97;;;2.00;;
52564;SDS011;38460;53.106;7.004;2023-08-31T01:30:23;6.30;;;2.50;;
52564;SDS011;38460;53.106;7.004;2023-08-31T01:32:49;5.25;;;3.00;;
52564;SDS011;38460;53.106;7.004;2023-08-31T01:35:16;7.38;;;3.80;;
52564;SDS011;38460;53.106;7.004;2023-08-31T01:37:47;6.25;;;3.60;;
52564;SDS011;38460;53.106;7.004;2023-08-31T01:43:14;8.18;;;4.32;;
52564;SDS011;38460;53.106;7.004;2023-08-31T01:45:42;6.88;;;3.88;;
52564;SDS011;38460;53.106;7.004;2023-08-31T01:48:09;6.10;;;3.83;;
52564;SDS011;38460;53.106;7.004;2023-08-31T01:50:35;8.98;;;4.13;;
52564;SDS011;38460;53.106;7.004;2023-08-31T01:53:00;6.88;;;3.78;;
52564;SDS011;38460;53.106;7.004;2023-08-31T01:55:26;8.85;;;3.58;;
52564;SDS011;38460;53.106;7.004;2023-08-31T01:57:52;9.15;;;3.22;;
52564;SDS011;38460;53.106;7.004;2023-08-31T02:00:18;6.75;;;3.25;;
52564;SDS011;38460;53.106;7.004;2023-08-31T02:02:45;6.22;;;2.75;;
52564;SDS011;38460;53.106;7.004;2023-08-31T02:05:10;7.18;;;3.45;;
52564;SDS011;38460;53.106;7.004;2023-08-31T02:07:36;4.20;;;2.65;;
52564;SDS011;38460;53.106;7.004;2023-08-31T02:10:03;5.80;;;2.58;;
52564;SDS011;38460;53.106;7.004;2023-08-31T02:12:31;3.97;;;2.22;;
52564;SDS011;38460;53.106;7.004;2023-08-31T02:14:57;5.40;;;2.47;;
52564;SDS011;38460;53.106;7.004;2023-08-31T02:17:23;4.53;;;2.20;;
52564;SDS011;38460;53.106;7.004;2023-08-31T02:19:50;4.75;;;2.70;;
52564;SDS011;38460;53.106;7.004;2023-08-31T02:22:16;6.22;;;2.55;;
52564;SDS011;38460;53.106;7.004;2023-08-31T02:24:42;6.60;;;2.67;;
52564;SDS011;38460;53.106;7.004;2023-08-31T02:27:08;7.13;;;2.53;;
52564;SDS011;38460;53.106;7.004;2023-08-31T02:29:33;6.60;;;3.40;;
52564;SDS011;38460;53.106;7.004;2023-08-31T02:31:59;6.13;;;3.50;;
52564;SDS011;38460;53.106;7.004;2023-08-31T02:34:25;6.38;;;4.15;;
52564;SDS011;38460;53.106;7.004;2023-08-31T02:36:50;11.98;;;5.07;;
52564;SDS011;38460;53.106;7.004;2023-08-31T02:39:16;7.35;;;4.90;;
52564;SDS011;38460;53.106;7.004;2023-08-31T02:41:42;10.48;;;5.63;;
52564;SDS011;38460;53.106;7.004;2023-08-31T02:44:08;11.25;;;5.70;;
52564;SDS011;38460;53.106;7.004;2023-08-31T02:46:33;10.38;;;5.18;;
52564;SDS011;38460;53.106;7.004;2023-08-31T02:48:59;7.05;;;3.70;;
52564;SDS011;38460;53.106;7.004;2023-08-31T02:51:25;5.07;;;2.80;;
52564;SDS011;38460;53.106;7.004;2023-08-31T02:53:50;10.38;;;3.05;;
52564;SDS011;38460;53.106;7.004;2023-08-31T02:56:18;6.13;;;2.70;;
52564;SDS011;38460;53.106;7.004;2023-08-31T02:58:44;8.50;;;3.00;;
52564;SDS011;38460;53.106;7.004;2023-08-31T03:01:10;5.18;;;2.65;;
52564;SDS011;38460;53.106;7.004;2023-08-31T03:03:40;6.55;;;3.33;;
52564;SDS011;38460;53.106;7.004;2023-08-31T03:06:07;3.95;;;2.15;;
52564;SDS011;38460;53.106;7.004;2023-08-31T03:08:34;5.30;;;3.03;;
52564;SDS011;38460;53.106;7.004;2023-08-31T03:11:00;9.43;;;3.25;;
52564;SDS011;38460;53.106;7.004;2023-08-31T03:13:26;6.25;;;3.13;;
52564;SDS011;38460;53.106;7.004;2023-08-31T03:15:52;7.72;;;2.97;;
52564;SDS011;38460;53.106;7.004;2023-08-31T03:18:18;4.25;;;2.70;;
52564;SDS011;38460;53.106;7.004;2023-08-31T03:20:43;6.35;;;3.30;;
52564;SDS011;38460;53.106;7.004;2023-08-31T03:23:09;6.25;;;2.92;;
52564;SDS011;38460;53.106;7.004;2023-08-31T03:25:36;5.47;;;3.28;;
52564;SDS011;38460;53.106;7.004;2023-08-31T03:28:02;8.35;;;3.40;;
52564;SDS011;38460;53.106;7.004;2023-08-31T03:30:28;4.70;;;2.97;;
52564;SDS011;38460;53.106;7.004;2023-08-31T03:32:54;7.68;;;3.55;;
52564;SDS011;38460;53.106;7.004;2023-08-31T03:35:20;5.57;;;3.47;;
52564;SDS011;38460;53.106;7.004;2023-08-31T03:37:47;5.78;;;3.85;;
52564;SDS011;38460;53.106;7.004;2023-08-31T03:40:13;6.22;;;3.63;;
52564;SDS011;38460;53.106;7.004;2023-08-31T03:42:39;6.50;;;3.50;;
52564;SDS011;38460;53.106;7.004;2023-08-31T03:45:05;5.45;;;3.80;;
52564;SDS011;38460;53.106;7.004;2023-08-31T03:47:31;6.60;;;3.60;;
52564;SDS011;38460;53.106;7.004;2023-08-31T03:49:57;9.02;;;4.60;;
52564;SDS011;38460;53.106;7.004;2023-08-31T03:52:22;6.65;;;4.05;;
52564;SDS011;38460;53.106;7.004;2023-08-31T03:54:48;7.72;;;4.85;;
52564;SDS011;38460;53.106;7.004;2023-08-31T03:57:14;7.55;;;4.63;;
52564;SDS011;38460;53.106;7.004;2023-08-31T03:59:40;7.82;;;4.80;;
52564;SDS011;38460;53.106;7.004;2023-08-31T04:02:06;6.70;;;3.83;;
52564;SDS011;38460;53.106;7.004;2023-08-31T04:04:32;8.23;;;4.80;;
52564;SDS011;38460;53.106;7.004;2023-08-31T04:06:59;6.55;;;4.35;;
52564;SDS011;38460;53.106;7.004;2023-08-31T04:09:25;7.47;;;5.20;;
52564;SDS011;38460;53.106;7.004;2023-08-31T04:11:51;7.15;;;4.80;;
52564;SDS011;38460;53.106;7.004;2023-08-31T04:14:16;8.07;;;4.40;;
52564;SDS011;38460;53.106;7.004;2023-08-31T04:16:43;7.75;;;4.88;;
52564;SDS011;38460;53.106;7.004;2023-08-31T04:19:10;8.43;;;5.90;;
52564;SDS011;38460;53.106;7.004;2023-08-31T04:21:36;7.60;;;5.00;;
52564;SDS011;38460;53.106;7.004;2023-08-31T04:24:03;7.80;;;5.88;;
52564;SDS011;38460;53.106;7.004;2023-08-31T04:26:29;9.98;;;5.45;;
52564;SDS011;38460;53.106;7.004;2023-08-31T04:28:54;11.07;;;7.97;;
52564;SDS011;38460;53.106;7.004;2023-08-31T04:31:21;9.95;;;7.00;;
52564;SDS011;38460;53.106;7.004;2023-08-31T04:33:47;14.13;;;9.10;;
52564;SDS011;38460;53.106;7.004;2023-08-31T04:36:13;11.82;;;8.48;;
52564;SDS011;38460;53.106;7.004;2023-08-31T04:38:39;19.27;;;12.60;;
52564;SDS011;38460;53.106;7.004;2023-08-31T04:41:05;25.65;;;15.38;;
52564;SDS011;38460;53.106;7.004;2023-08-31T04:43:31;21.20;;;14.05;;
52564;SDS011;38460;53.106;7.004;2023-08-31T04:45:57;17.88;;;11.48;;
52564;SDS011;38460;53.106;7.004;2023-08-31T04:48:22;19.80;;;12.88;;
52564;SDS011;38460;53.106;7.004;2023-08-31T04:50:48;18.45;;;13.23;;
52564;SDS011;38460;53.106;7.004;2023-08-31T04:53:14;20.20;;;13.00;;
52564;SDS011;38460;53.106;7.004;2023-08-31T04:55:40;18.50;;;11.88;;
52564;SDS011;38460;53.106;7.004;2023-08-31T04:58:05;17.15;;;10.77;;
52564;SDS011;38460;53.106;7.004;2023-08-31T05:00:31;14.80;;;9.18;;
52564;SDS011;38460;53.106;7.004;2023-08-31T05:02:57;14.68;;;9.05;;
52564;SDS011;38460;53.106;7.004;2023-08-31T05:05:23;14.73;;;9.68;;
52564;SDS011;38460;53.106;7.004;2023-08-31T05:07:49;16.23;;;10.43;;
52564;SDS011;38460;53.106;7.004;2023-08-31T05:10:14;16.75;;;10.50;;
52564;SDS011;38460;53.106;7.004;2023-08-31T05:12:41;17.60;;;10.68;;
52564;SDS011;38460;53.106;7.004;2023-08-31T05:15:07;16.80;;;11.23;;
52564;SDS011;38460;53.106;7.004;2023-08-31T05:17:34;21.75;;;12.00;;
52564;SDS011;38460;53.106;7.004;2023-08-31T05:20:00;22.95;;;14.60;;
52564;SDS011;38460;53.106;7.004;2023-08-31T05:22:26;18.35;;;12.60;;
52564;SDS011;38460;53.106;7.004;2023-08-31T05:24:51;20.33;;;12.48;;
52564;SDS011;38460;53.106;7.004;2023-08-31T05:27:17;17.23;;;11.10;;
52564;SDS011;38460;53.106;7.004;2023-08-31T05:29:43;17.30;;;11.70;;
52564;SDS011;38460;53.106;7.004;2023-08-31T05:32:08;14.45;;;9.85;;
52564;SDS011;38460;53.106;7.004;2023-08-31T05:34:34;13.20;;;8.75;;
52564;SDS011;38460;53.106;7.004;2023-08-31T05:37:03;8.65;;;6.32;;
52564;SDS011;38460;53.106;7.004;2023-08-31T05:39:30;9.15;;;6.32;;
52564;SDS011;38460;53.106;7.004;2023-08-31T05:41:56;10.07;;;6.05;;
52564;SDS011;38460;53.106;7.004;2023-08-31T05:44:22;8.77;;;6.72;;
52564;SDS011;38460;53.106;7.004;2023-08-31T05:46:51;12.23;;;6.63;;
52564;SDS011;38460;53.106;7.004;2023-08-31T05:49:16;8.43;;;6.55;;
52564;SDS011;38460;53.106;7.004;2023-08-31T05:51:42;9.10;;;5.95;;
52564;SDS011;38460;53.106;7.004;2023-08-31T05:54:08;8.32;;;6.18;;
52564;SDS011;38460;53.106;7.004;2023-08-31T05:56:37;9.15;;;6.03;;
52564;SDS011;38460;53.106;7.004;2023-08-31T05:59:04;8.15;;;6.05;;
52564;SDS011;38460;53.106;7.004;2023-08-31T06:01:31;8.13;;;6.72;;
52564;SDS011;38460;53.106;7.004;2023-08-31T06:03:57;8.52;;;6.35;;
52564;SDS011;38460;53.106;7.004;2023-08-31T06:06:22;9.50;;;6.15;;
52564;SDS011;38460;53.106;7.004;2023-08-31T06:08:48;10.13;;;6.25;;
52564;SDS011;38460;53.106;7.004;2023-08-31T06:11:14;12.32;;;6.30;;
52564;SDS011;38460;53.106;7.004;2023-08-31T06:13:40;9.52;;;5.78;;
52564;SDS011;38460;53.106;7.004;2023-08-31T06:16:06;9.65;;;5.93;;
52564;SDS011;38460;53.106;7.004;2023-08-31T06:18:32;9.38;;;6.15;;
52564;SDS011;38460;53.106;7.004;2023-08-31T06:20:58;10.00;;;6.88;;
52564;SDS011;38460;53.106;7.004;2023-08-31T06:23:23;8.25;;;5.78;;
52564;SDS011;38460;53.106;7.004;2023-08-31T06:25:49;9.77;;;6.53;;
52564;SDS011;38460;53.106;7.004;2023-08-31T06:28:15;8.88;;;6.38;;
52564;SDS011;38460;53.106;7.004;2023-08-31T06:30:41;7.57;;;5.55;;
52564;SDS011;38460;53.106;7.004;2023-08-31T06:33:12;8.00;;;5.78;;
52564;SDS011;38460;53.106;7.004;2023-08-31T06:35:38;8.23;;;6.07;;
52564;SDS011;38460;53.106;7.004;2023-08-31T06:38:04;13.60;;;6.10;;
52564;SDS011;38460;53.106;7.004;2023-08-31T06:40:30;8.65;;;5.85;;
52564;SDS011;38460;53.106;7.004;2023-08-31T06:42:55;7.82;;;5.97;;
52564;SDS011;38460;53.106;7.004;2023-08-31T06:45:21;8.20;;;5.53;;
52564;SDS011;38460;53.106;7.004;2023-08-31T06:47:47;10.13;;;5.97;;
52564;SDS011;38460;53.106;7.004;2023-08-31T06:50:13;7.82;;;5.43;;
52564;SDS011;38460;53.106;7.004;2023-08-31T06:52:38;7.65;;;5.80;;
52564;SDS011;38460;53.106;7.004;2023-08-31T06:55:06;9.90;;;6.28;;
52564;SDS011;38460;53.106;7.004;2023-08-31T06:57:32;10.30;;;5.80;;
52564;SDS011;38460;53.106;7.004;2023-08-31T06:59:58;10.93;;;5.90;;
52564;SDS011;38460;53.106;7.004;2023-08-31T07:02:27;8.52;;;5.47;;
52564;SDS011;38460;53.106;7.004;2023-08-31T07:04:53;7.93;;;5.20;;
52564;SDS011;38460;53.106;7.004;2023-08-31T07:07:19;8.15;;;5.57;;
52564;SDS011;38460;53.106;7.004;2023-08-31T07:09:45;8.38;;;5.43;;
52564;SDS011;38460;53.106;7.004;2023-08-31T07:12:12;13.43;;;5.88;;
52564;SDS011;38460;53.106;7.004;2023-08-31T07:14:38;8.48;;;4.50;;
52564;SDS011;38460;53.106;7.004;2023-08-31T07:17:03;10.57;;;5.03;;
52564;SDS011;38460;53.106;7.004;2023-08-31T07:19:29;7.07;;;4.53;;
52564;SDS011;38460;53.106;7.004;2023-08-31T07:21:55;7.75;;;4.10;;
52564;SDS011;38460;53.106;7.004;2023-08-31T07:24:22;6.93;;;4.05;;
52564;SDS011;38460;53.106;7.004;2023-08-31T07:26:48;8.60;;;4.75;;
52564;SDS011;38460;53.106;7.004;2023-08-31T07:29:13;5.78;;;3.40;;
52564;SDS011;38460;53.106;7.004;2023-08-31T07:31:39;5.28;;;3.60;;
52564;SDS011;38460;53.106;7.004;2023-08-31T07:34:05;7.85;;;3.70;;
52564;SDS011;38460;53.106;7.004;2023-08-31T07:36:31;6.32;;;3.03;;
52564;SDS011;38460;53.106;7.004;2023-08-31T07:38:57;4.75;;;2.78;;
52564;SDS011;38460;53.106;7.004;2023-08-31T07:41:23;4.57;;;2.70;;
52564;SDS011;38460;53.106;7.004;2023-08-31T07:43:48;4.75;;;2.50;;
52564;SDS011;38460;53.106;7.004;2023-08-31T07:46:14;5.13;;;2.38;;
52564;SDS011;38460;53.106;7.004;2023-08-31T07:48:44;4.20;;;2.05;;
52564;SDS011;38460;53.106;7.004;2023-08-31T07:51:09;4.55;;;2.25;;
52564;SDS011;38460;53.106;7.004;2023-08-31T07:53:35;6.18;;;1.60;;
52564;SDS011;38460;53.106;7.004;2023-08-31T07:56:01;4.25;;;1.60;;
52564;SDS011;38460;53.106;7.004;2023-08-31T07:58:26;4.07;;;1.80;;
52564;SDS011;38460;53.106;7.004;2023-08-31T08:00:53;4.72;;;1.50;;
52564;SDS011;38460;53.106;7.004;2023-08-31T08:03:19;5.93;;;1.73;;
52564;SDS011;38460;53.106;7.004;2023-08-31T08:05:46;3.67;;;1.20;;
52564;SDS011;38460;53.106;7.004;2023-08-31T08:08:11;4.20;;;1.33;;
52564;SDS011;38460;53.106;7.004;2023-08-31T08:10:37;2.15;;;1.10;;
52564;SDS011;38460;53.106;7.004;2023-08-31T08:13:03;2.15;;;1.23;;
52564;SDS011;38460;53.106;7.004;2023-08-31T08:15:30;3.00;;;1.52;;
52564;SDS011;38460;53.106;7.004;2023-08-31T08:17:56;3.60;;;1.83;;
52564;SDS011;38460;53.106;7.004;2023-08-31T08:20:24;2.67;;;1.13;;
52564;SDS011;38460;53.106;7.004;2023-08-31T08:22:50;5.13;;;2.00;;
52564;SDS011;38460;53.106;7.004;2023-08-31T08:25:19;6.65;;;1.20;;
52564;SDS011;38460;53.106;7.004;2023-08-31T08:27:46;2.85;;;1.20;;
52564;SDS011;38460;53.106;7.004;2023-08-31T08:30:12;4.03;;;1.02;;
52564;SDS011;38460;53.106;7.004;2023-08-31T08:32:38;2.58;;;0.95;;
52564;SDS011;38460;53.106;7.004;2023-08-31T08:35:04;3.17;;;1.00;;
52564;SDS011;38460;53.106;7.004;2023-08-31T08:37:31;2.67;;;1.17;;
52564;SDS011;38460;53.106;7.004;2023-08-31T08:39:59;6.45;;;1.67;;
52564;SDS011;38460;53.106;7.004;2023-08-31T08:42:26;2.70;;;1.08;;
52564;SDS011;38460;53.106;7.004;2023-08-31T08:44:56;3.22;;;0.98;;
52564;SDS011;38460;53.106;7.004;2023-08-31T08:47:22;2.50;;;0.82;;
52564;SDS011;38460;53.106;7.004;2023-08-31T08:49:48;1.75;;;1.10;;
52564;SDS011;38460;53.106;7.004;2023-08-31T08:52:15;3.38;;;0.90;;
52564;SDS011;38460;53.106;7.004;2023-08-31T08:54:41;4.13;;;1.25;;
52564;SDS011;38460;53.106;7.004;2023-08-31T08:57:07;2.45;;;0.90;;
52564;SDS011;38460;53.106;7.004;2023-08-31T08:59:33;5.38;;;1.42;;
52564;SDS011;38460;53.106;7.004;2023-08-31T09:01:58;3.53;;;1.00;;
52564;SDS011;38460;53.106;7.004;2023-08-31T09:04:24;3.25;;;0.90;;
52564;SDS011;38460;53.106;7.004;2023-08-31T09:06:50;3.70;;;1.00;;
52564;SDS011;38460;53.106;7.004;2023-08-31T09:09:16;3.85;;;0.90;;
52564;SDS011;38460;53.106;7.004;2023-08-31T09:11:43;3.92;;;1.00;;
52564;SDS011;38460;53.106;7.004;2023-08-31T09:14:13;5.15;;;1.27;;
52564;SDS011;38460;53.106;7.004;2023-08-31T09:16:40;3.60;;;1.00;;
52564;SDS011;38460;53.106;7.004;2023-08-31T09:21:48;2.45;;;0.88;;
52564;SDS011;38460;53.106;7.004;2023-08-31T09:24:15;3.72;;;1.13;;
52564;SDS011;38460;53.106;7.004;2023-08-31T09:26:43;4.30;;;1.00;;
52564;SDS011;38460;53.106;7.004;2023-08-31T09:29:13;4.38;;;1.20;;
52564;SDS011;38460;53.106;7.004;2023-08-31T09:31:41;1.77;;;0.75;;
52564;SDS011;38460;53.106;7.004;2023-08-31T09:34:09;3.13;;;1.00;;
52564;SDS011;38460;53.106;7.004;2023-08-31T09:36:35;3.20;;;0.93;;
52564;SDS011;38460;53.106;7.004;2023-08-31T09:39:02;2.30;;;0.80;;
52564;SDS011;38460;53.106;7.004;2023-08-31T09:41:28;2.55;;;0.70;;
52564;SDS011;38460;53.106;7.004;2023-08-31T09:43:53;4.35;;;0.90;;
52564;SDS011;38460;53.106;7.004;2023-08-31T09:46:19;2.90;;;0.90;;
52564;SDS011;38460;53.106;7.004;2023-08-31T09:48:46;2.25;;;0.77;;
52564;SDS011;38460;53.106;7.004;2023-08-31T09:51:14;2.72;;;1.00;;
52564;SDS011;38460;53.106;7.004;2023-08-31T09:53:42;3.05;;;0.90;;
52564;SDS011;38460;53.106;7.004;2023-08-31T09:56:11;4.18;;;0.95;;
52564;SDS011;38460;53.106;7.004;2023-08-31T09:58:43;1.17;;;0.50;;
52564;SDS011;38460;53.106;7.004;2023-08-31T10:01:09;0.75;;;0.40;;
52564;SDS011;38460;53.106;7.004;2023-08-31T10:03:35;1.88;;;0.65;;
52564;SDS011;38460;53.106;7.004;2023-08-31T10:06:02;2.58;;;0.60;;
52564;SDS011;38460;53.106;7.004;2023-08-31T10:08:28;1.90;;;0.68;;
52564;SDS011;38460;53.106;7.004;2023-08-31T10:10:58;3.30;;;0.80;;
52564;SDS011;38460;53.106;7.004;2023-08-31T10:13:28;1.75;;;0.70;;
52564;SDS011;38460;53.106;7.004;2023-08-31T10:16:00;1.90;;;0.82;;
52564;SDS011;38460;53.106;7.004;2023-08-31T10:18:28;1.95;;;0.60;;
52564;SDS011;38460;53.106;7.004;2023-08-31T10:20:55;1.75;;;0.73;;
52564;SDS011;38460;53.106;7.004;2023-08-31T10:23:21;2.15;;;0.80;;
52564;SDS011;38460;53.106;7.004;2023-08-31T10:28:21;1.30;;;0.70;;
52564;SDS011;38460;53.106;7.004;2023-08-31T10:31:01;1.70;;;0.77;;
52564;SDS011;38460;53.106;7.004;2023-08-31T10:33:33;1.63;;;0.50;;
52564;SDS011;38460;53.106;7.004;2023-08-31T10:36:18;0.73;;;0.52;;
52564;SDS011;38460;53.106;7.004;2023-08-31T10:39:06;1.77;;;0.88;;
52564;SDS011;38460;53.106;7.004;2023-08-31T10:41:53;2.50;;;0.60;;
52564;SDS011;38460;53.106;7.004;2023-08-31T10:44:23;1.67;;;0.60;;
52564;SDS011;38460;53.106;7.004;2023-08-31T10:46:50;2.78;;;0.80;;
52564;SDS011;38460;53.106;7.004;2023-08-31T10:49:20;1.60;;;0.80;;
52564;SDS011;38460;53.106;7.004;2023-08-31T10:51:56;2.38;;;0.80;;
52564;SDS011;38460;53.106;7.004;2023-08-31T10:57:05;1.73;;;0.70;;
52564;SDS011;38460;53.106;7.004;2023-08-31T11:05:18;2.30;;;0.77;;
52564;SDS011;38460;53.106;7.004;2023-08-31T11:07:45;1.02;;;0.60;;
52564;SDS011;38460;53.106;7.004;2023-08-31T11:12:49;1.73;;;0.85;;
52564;SDS011;38460;53.106;7.004;2023-08-31T11:15:19;1.27;;;0.60;;
52564;SDS011;38460;53.106;7.004;2023-08-31T11:17:51;2.05;;;0.88;;
52564;SDS011;38460;53.106;7.004;2023-08-31T11:20:19;2.80;;;0.77;;
52564;SDS011;38460;53.106;7.004;2023-08-31T11:22:47;1.52;;;0.75;;
52564;SDS011;38460;53.106;7.004;2023-08-31T11:25:15;1.45;;;0.80;;
52564;SDS011;38460;53.106;7.004;2023-08-31T11:27:42;1.55;;;0.50;;
52564;SDS011;38460;53.106;7.004;2023-08-31T11:30:22;0.95;;;0.70;;
52564;SDS011;38460;53.106;7.004;2023-08-31T11:32:49;2.40;;;1.00;;
52564;SDS011;38460;53.106;7.004;2023-08-31T11:35:16;1.98;;;1.13;;
52564;SDS011;38460;53.106;7.004;2023-08-31T11:37:43;2.45;;;0.90;;
52564;SDS011;38460;53.106;7.004;2023-08-31T11:40:13;2.05;;;0.80;;
52564;SDS011;38460;53.106;7.004;2023-08-31T11:42:42;1.50;;;0.70;;
52564;SDS011;38460;53.106;7.004;2023-08-31T11:45:08;6.72;;;1.00;;
52564;SDS011;38460;53.106;7.004;2023-08-31T11:47:36;1.40;;;0.80;;
52564;SDS011;38460;53.106;7.004;2023-08-31T11:50:02;2.22;;;0.93;;
52564;SDS011;38460;53.106;7.004;2023-08-31T11:52:30;1.63;;;0.75;;
52564;SDS011;38460;53.106;7.004;2023-08-31T11:54:56;2.40;;;1.02;;
52564;SDS011;38460;53.106;7.004;2023-08-31T11:57:26;1.73;;;0.80;;
52564;SDS011;38460;53.106;7.004;2023-08-31T11:59:53;1.73;;;0.70;;
52564;SDS011;38460;53.106;7.004;2023-08-31T12:02:21;5.35;;;0.85;;
52564;SDS011;38460;53.106;7.004;2023-08-31T12:04:47;1.67;;;0.80;;
52564;SDS011;38460;53.106;7.004;2023-08-31T12:07:17;3.90;;;0.80;;
52564;SDS011;38460;53.106;7.004;2023-08-31T12:09:44;2.85;;;1.13;;
52564;SDS011;38460;53.106;7.004;2023-08-31T12:12:10;3.17;;;1.20;;
52564;SDS011;38460;53.106;7.004;2023-08-31T12:14:38;2.33;;;1.15;;
52564;SDS011;38460;53.106;7.004;2023-08-31T12:17:05;3.28;;;1.10;;
52564;SDS011;38460;53.106;7.004;2023-08-31T12:19:32;2.80;;;0.98;;
52564;SDS011;38460;53.106;7.004;2023-08-31T12:22:01;1.90;;;0.85;;
52564;SDS011;38460;53.106;7.004;2023-08-31T12:24:27;2.08;;;0.80;;
52564;SDS011;38460;53.106;7.004;2023-08-31T12:26:53;3.30;;;0.93;;
52564;SDS011;38460;53.106;7.004;2023-08-31T12:29:19;3.53;;;1.02;;
52564;SDS011;38460;53.106;7.004;2023-08-31T12:31:45;3.22;;;0.80;;
52564;SDS011;38460;53.106;7.004;2023-08-31T12:34:11;1.95;;;0.90;;
52564;SDS011;38460;53.106;7.004;2023-08-31T12:36:37;3.63;;;0.85;;
52564;SDS011;38460;53.106;7.004;2023-08-31T12:39:05;3.10;;;0.70;;
52564;SDS011;38460;53.106;7.004;2023-08-31T12:41:34;1.38;;;0.70;;
52564;SDS011;38460;53.106;7.004;2023-08-31T12:44:01;1.30;;;0.65;;
52564;SDS011;38460;53.106;7.004;2023-08-31T12:46:28;1.17;;;0.60;;
52564;SDS011;38460;53.106;7.004;2023-08-31T12:48:54;2.50;;;0.90;;
52564;SDS011;38460;53.106;7.004;2023-08-31T12:51:20;2.88;;;0.63;;
52564;SDS011;38460;53.106;7.004;2023-08-31T12:53:46;1.20;;;0.70;;
52564;SDS011;38460;53.106;7.004;2023-08-31T12:56:12;1.25;;;0.80;;
52564;SDS011;38460;53.106;7.004;2023-08-31T12:58:38;1.63;;;0.90;;
52564;SDS011;38460;53.106;7.004;2023-08-31T13:01:04;1.15;;;0.50;;
52564;SDS011;38460;53.106;7.004;2023-08-31T13:03:30;2.00;;;0.60;;
52564;SDS011;38460;53.106;7.004;2023-08-31T13:05:56;1.30;;;0.65;;
52564;SDS011;38460;53.106;7.004;2023-08-31T13:08:22;2.55;;;1.38;;
52564;SDS011;38460;53.106;7.004;2023-08-31T13:10:52;4.20;;;1.33;;
52564;SDS011;38460;53.106;7.004;2023-08-31T13:13:19;1.67;;;0.95;;
52564;SDS011;38460;53.106;7.004;2023-08-31T13:15:46;3.13;;;1.10;;
52564;SDS011;38460;53.106;7.004;2023-08-31T13:18:12;4.63;;;2.20;;
52564;SDS011;38460;53.106;7.004;2023-08-31T13:20:37;4.88;;;1.27;;
52564;SDS011;38460;53.106;7.004;2023-08-31T13:23:03;7.90;;;2.17;;
52564;SDS011;38460;53.106;7.004;2023-08-31T13:25:29;4.15;;;1.27;;
52564;SDS011;38460;53.106;7.004;2023-08-31T13:27:56;6.80;;;1.80;;
52564;SDS011;38460;53.106;7.004;2023-08-31T13:30:22;4.07;;;1.15;;
52564;SDS011;38460;53.106;7.004;2023-08-31T13:32:48;3.17;;;1.15;;
52564;SDS011;38460;53.106;7.004;2023-08-31T13:35:14;3.45;;;1.40;;
52564;SDS011;38460;53.106;7.004;2023-08-31T13:37:39;4.72;;;1.30;;
52564;SDS011;38460;53.106;7.004;2023-08-31T13:40:05;5.07;;;1.00;;
52564;SDS011;38460;53.106;7.004;2023-08-31T13:42:34;6.35;;;0.90;;
52564;SDS011;38460;53.106;7.004;2023-08-31T13:45:06;5.40;;;1.05;;
52564;SDS011;38460;53.106;7.004;2023-08-31T13:47:32;2.10;;;0.90;;
52564;SDS011;38460;53.106;7.004;2023-08-31T13:49:58;3.90;;;0.90;;
52564;SDS011;38460;53.106;7.004;2023-08-31T13:52:24;2.80;;;0.80;;
52564;SDS011;38460;53.106;7.004;2023-08-31T13:54:50;1.88;;;0.73;;
52564;SDS011;38460;53.106;7.004;2023-08-31T13:57:16;2.60;;;0.70;;
52564;SDS011;38460;53.106;7.004;2023-08-31T13:59:43;2.47;;;0.70;;
52564;SDS011;38460;53.106;7.004;2023-08-31T14:02:09;3.53;;;1.10;;
52564;SDS011;38460;53.106;7.004;2023-08-31T14:04:35;1.70;;;0.70;;
52564;SDS011;38460;53.106;7.004;2023-08-31T14:07:01;1.92;;;0.85;;
52564;SDS011;38460;53.106;7.004;2023-08-31T14:09:30;0.88;;;0.68;;
52564;SDS011;38460;53.106;7.004;2023-08-31T14:11:56;2.08;;;0.88;;
52564;SDS011;38460;53.106;7.004;2023-08-31T14:14:22;2.72;;;0.93;;
52564;SDS011;38460;53.106;7.004;2023-08-31T14:16:49;4.03;;;0.98;;
52564;SDS011;38460;53.106;7.004;2023-08-31T14:19:15;1.83;;;0.70;;
52564;SDS011;38460;53.106;7.004;2023-08-31T14:21:40;3.50;;;0.95;;
52564;SDS011;38460;53.106;7.004;2023-08-31T14:24:06;3.85;;;1.27;;
52564;SDS011;38460;53.106;7.004;2023-08-31T14:26:32;4.65;;;1.10;;
52564;SDS011;38460;53.106;7.004;2023-08-31T14:28:58;1.85;;;1.00;;
52564;SDS011;38460;53.106;7.004;2023-08-31T14:31:24;3.72;;;1.10;;
52564;SDS011;38460;53.106;7.004;2023-08-31T14:33:50;3.42;;;1.10;;
52564;SDS011;38460;53.106;7.004;2023-08-31T14:36:17;4.50;;;1.30;;
52564;SDS011;38460;53.106;7.004;2023-08-31T14:38:43;2.40;;;1.20;;
52564;SDS011;38460;53.106;7.004;2023-08-31T14:41:10;4.03;;;1.35;;
52564;SDS011;38460;53.106;7.004;2023-08-31T14:43:36;2.83;;;0.93;;
52564;SDS011;38460;53.106;7.004;2023-08-31T14:46:02;2.75;;;1.10;;
52564;SDS011;38460;53.106;7.004;2023-08-31T14:48:29;3.13;;;1.20;;
52564;SDS011;38460;53.106;7.004;2023-08-31T14:50:57;3.63;;;1.10;;
52564;SDS011;38460;53.106;7.004;2023-08-31T14:53:25;1.98;;;0.98;;
52564;SDS011;38460;53.106;7.004;2023-08-31T14:55:52;2.80;;;1.10;;
52564;SDS011;38460;53.106;7.004;2023-08-31T14:58:18;2.97;;;1.05;;
52564;SDS011;38460;53.106;7.004;2023-08-31T15:00:44;2.63;;;1.00;;
52564;SDS011;38460;53.106;7.004;2023-08-31T15:03:11;3.50;;;1.30;;
52564;SDS011;38460;53.106;7.004;2023-08-31T15:05:36;4.55;;;1.58;;
52564;SDS011;38460;53.106;7.004;2023-08-31T15:08:03;4.15;;;1.10;;
52564;SDS011;38460;53.106;7.004;2023-08-31T15:10:30;4.05;;;1.20;;
52564;SDS011;38460;53.106;7.004;2023-08-31T15:12:55;3.15;;;0.95;;
52564;SDS011;38460;53.106;7.004;2023-08-31T15:15:27;1.95;;;0.73;;